Time;durP1;ratioP1;P1;durP2;ratioP2;P2;SDS_P1;SDS_P2;PMS_P1;PMS_P2;Temp;Humidity;BMP_temperature;BMP_pressure;BME280_temperature;BME280_humidity;BME280_pressure;Samples;Min_cycle;Max_cycle;Signal;HPM_P1;HPM_P2
2021/08/02 00:01:52;;;;;;;;;;;17.60;99.90;;;17.35;91.44;100157.69;5071078;28;20335;-87
2021/08/02 00:04:23;;;;;;;;;;;17.60;99.80;;;17.32;91.59;100160.91;5054700;28;19928;-86
2021/08/02 00:06:51;;;;;;;;;;;17.60;99.60;;;17.30;91.66;100172.13;5053849;28;19924;-86
2021/08/02 00:09:24;;;;;;;;;;;17.60;99.70;;;17.26;91.88;100162.69;5054527;28;19920;-86
2021/08/02 00:11:55;;;;;;;;;;;17.60;99.80;;;17.29;91.84;100158.66;5054277;28;20339;-86
2021/08/02 00:14:24;;;;;;;;;;;17.60;99.70;;;17.30;91.67;100160.31;5054582;28;19928;-86
2021/08/02 00:16:52;;;;;;;;;;;17.60;99.60;;;17.31;91.68;100160.06;5071779;28;19920;-87
2021/08/02 00:19:20;;;;;;;;;;;17.50;99.80;;;17.31;91.55;100156.50;5072442;28;20445;-86
2021/08/02 00:21:48;;;;;;;;;;;17.50;99.70;;;17.32;91.31;100163.66;5054288;28;20514;-87
2021/08/02 00:24:16;;;;;;;;;;;17.50;99.50;;;17.24;90.84;100167.59;5072292;28;19952;-86
2021/08/02 00:26:43;;;;;;;;;;;17.50;99.20;;;17.25;91.25;100162.91;5053389;28;19928;-86
2021/08/02 00:29:13;;;;;;;;;;;17.60;99.20;;;17.25;90.98;100162.91;5054038;28;20396;-86
2021/08/02 00:31:40;;;;;;;;;;;17.50;98.70;;;17.25;90.40;100168.41;5054092;28;20018;-87
2021/08/02 00:34:08;;;;;;;;;;;17.50;98.70;;;17.24;90.65;100169.50;5054052;28;19928;-87
2021/08/02 00:36:40;;;;;;;;;;;17.40;98.80;;;17.24;90.51;100173.09;5053189;28;19978;-86
2021/08/02 00:39:11;;;;;;;;;;;17.40;98.70;;;17.25;90.33;100173.91;5072238;28;19924;-86
2021/08/02 00:42:00;;;;;;;;;;;17.40;98.60;;;17.23;89.91;100178.81;5053682;28;19928;-86
2021/08/02 00:44:55;;;;;;;;;;;17.40;98.60;;;17.21;89.84;100179.09;5058977;28;19924;-86
2021/08/02 00:47:28;;;;;;;;;;;17.40;98.60;;;17.18;90.07;100169.38;5053214;28;19955;-86
2021/08/02 00:49:57;;;;;;;;;;;17.30;98.70;;;17.18;89.51;100172.13;5053920;28;19924;-86
2021/08/02 00:52:27;;;;;;;;;;;17.30;98.60;;;17.14;89.08;100184.69;5053685;28;20297;-86
2021/08/02 00:54:58;;;;;;;;;;;17.20;98.10;;;17.13;88.79;100174.72;5053806;28;19924;-87
2021/08/02 00:57:30;;;;;;;;;;;17.20;98.20;;;17.11;88.52;100185.13;5052928;28;19951;-86
2021/08/02 01:00:03;;;;;;;;;;;17.10;98.10;;;17.12;88.57;100180.50;5053652;28;20399;-86
2021/08/02 01:02:37;;;;;;;;;;;17.10;98.00;;;17.10;88.09;100177.16;5050984;28;19924;-86
2021/08/02 01:05:06;;;;;;;;;;;17.00;98.00;;;17.10;87.77;100179.91;5049530;28;20032;-86
2021/08/02 01:07:34;;;;;;;;;;;17.00;98.00;;;17.07;87.40;100181.19;5050893;28;19960;-87
2021/08/02 01:10:01;;;;;;;;;;;16.90;97.80;;;17.04;87.26;100173.44;5050920;28;20377;-87
2021/08/02 01:12:30;;;;;;;;;;;16.90;97.70;;;17.03;86.84;100171.75;5053325;28;19943;-87
2021/08/02 01:14:58;;;;;;;;;;;16.90;97.60;;;17.02;87.06;100169.22;5053420;28;19963;-87
2021/08/02 01:17:27;;;;;;;;;;;16.80;97.60;;;16.96;86.76;100169.09;5052810;28;19924;-86
2021/08/02 01:19:56;;;;;;;;;;;16.80;97.90;;;16.95;86.74;100163.84;5053416;28;20369;-87
2021/08/02 01:22:30;;;;;;;;;;;16.80;98.00;;;16.93;86.90;100171.50;5053191;28;19920;-86
2021/08/02 01:25:21;;;;;;;;;;;16.70;98.10;;;16.93;86.80;100177.81;5071295;28;20403;-87
2021/08/02 01:27:48;;;;;;;;;;;16.70;98.30;;;16.90;86.78;100170.03;5070394;28;20385;-88
2021/08/02 01:30:23;;;;;;;;;;;16.70;98.20;;;16.88;86.97;100179.59;5052941;28;19928;-86
2021/08/02 01:33:08;;;;;;;;;;;16.70;98.30;;;16.87;87.15;100173.25;5052899;28;20379;-86
2021/08/02 01:35:37;;;;;;;;;;;16.70;98.40;;;16.89;87.17;100178.53;5069444;28;19943;-86
2021/08/02 01:38:07;;;;;;;;;;;16.70;98.40;;;16.85;86.97;100174.56;5052107;28;19931;-87
2021/08/02 01:40:34;;;;;;;;;;;16.70;98.30;;;16.83;87.12;100179.44;5052740;28;19947;-87
2021/08/02 01:43:04;;;;;;;;;;;16.70;98.30;;;16.81;86.94;100179.63;5052700;28;19920;-87
2021/08/02 01:45:33;;;;;;;;;;;16.70;98.30;;;16.77;87.08;100179.31;5052612;28;20011;-86
2021/08/02 01:48:06;;;;;;;;;;;16.70;98.30;;;16.78;86.74;100183.72;5052025;28;20023;-87
2021/08/02 01:50:41;;;;;;;;;;;16.60;98.10;;;16.77;86.85;100187.53;5052717;28;20019;-87
2021/08/02 01:53:17;;;;;;;;;;;16.50;98.10;;;16.76;86.86;100191.34;5052715;28;19968;-87
2021/08/02 01:55:51;;;;;;;;;;;16.50;98.10;;;16.76;86.71;100187.78;5070325;28;20010;-87
2021/08/02 01:58:19;;;;;;;;;;;16.60;98.40;;;16.75;86.51;100183.34;5052270;28;19924;-86
2021/08/02 02:01:12;;;;;;;;;;;16.60;98.20;;;16.74;86.50;100190.75;5059162;28;20011;-86
2021/08/02 02:03:44;;;;;;;;;;;16.50;98.10;;;16.70;86.28;100184.03;5052268;28;19935;-87
2021/08/02 02:06:15;;;;;;;;;;;16.50;98.00;;;16.69;86.28;100187.84;5051497;28;20337;-87
2021/08/02 02:08:55;;;;;;;;;;;16.40;97.90;;;16.71;86.11;100187.63;5052273;28;19974;-87
2021/08/02 02:11:28;;;;;;;;;;;16.40;98.00;;;16.64;86.05;100190.47;5052063;23;19929;-92
2021/08/02 02:14:07;;;;;;;;;;;16.40;98.00;;;16.61;86.11;100190.94;5046350;28;19960;-91
2021/08/02 02:16:37;;;;;;;;;;;16.40;98.10;;;16.63;86.01;100194.28;5044673;28;20586;-91
2021/08/02 02:19:07;;;;;;;;;;;16.30;98.00;;;16.59;86.03;100187.59;5046282;28;20424;-91
2021/08/02 02:21:35;;;;;;;;;;;16.40;98.10;;;16.55;85.71;100178.13;5030877;28;20348;-91
2021/08/02 02:24:10;;;;;;;;;;;16.40;98.10;;;16.53;86.22;100185.78;5030888;28;19975;-91
2021/08/02 02:26:40;;;;;;;;;;;16.40;98.00;;;16.54;86.14;100196.50;5029113;28;19921;-91
2021/08/02 02:29:11;;;;;;;;;;;16.40;98.00;;;16.53;86.24;100199.50;5029466;28;19968;-91
2021/08/02 02:31:40;;;;;;;;;;;16.40;98.10;;;16.54;86.37;100206.66;5029436;28;19971;-92
2021/08/02 02:34:12;;;;;;;;;;;16.40;98.10;;;16.52;86.30;100198.66;5029233;28;19929;-92
2021/08/02 02:36:42;;;;;;;;;;;16.40;98.10;;;16.55;86.45;100209.19;5028291;28;19924;-90
2021/08/02 02:39:14;;;;;;;;;;;16.40;98.00;;;16.51;86.60;100205.22;5029349;28;20316;-91
2021/08/02 02:41:44;;;;;;;;;;;16.40;98.10;;;16.50;86.72;100211.78;5029175;28;19932;-93
2021/08/02 02:44:12;;;;;;;;;;;16.40;98.40;;;16.49;86.87;100203.78;5029255;28;19943;-91
2021/08/02 02:46:41;;;;;;;;;;;16.50;98.50;;;16.49;86.91;100206.53;5028666;28;19925;-92
2021/08/02 02:49:09;;;;;;;;;;;16.40;98.50;;;16.49;87.17;100203.78;5029254;28;19936;-90
2021/08/02 02:51:38;;;;;;;;;;;16.40;98.50;;;16.48;87.25;100202.09;5029151;28;19925;-92
2021/08/02 02:54:07;;;;;;;;;;;16.50;98.60;;;16.46;87.40;100210.56;5029865;28;19928;-91
2021/08/02 02:56:37;;;;;;;;;;;16.50;98.60;;;16.48;87.50;100208.44;5028329;28;19925;-92
2021/08/02 02:59:05;;;;;;;;;;;16.50;98.80;;;16.48;87.82;100204.84;5029087;28;19925;-92
2021/08/02 03:01:36;;;;;;;;;;;16.50;98.80;;;16.49;87.79;100209.28;5030081;28;19943;-92
2021/08/02 03:04:04;;;;;;;;;;;16.50;98.90;;;16.48;87.74;100207.59;5029084;28;20374;-92
2021/08/02 03:06:33;;;;;;;;;;;16.50;98.80;;;16.51;87.76;100207.16;5028502;28;19960;-91
2021/08/02 03:09:01;;;;;;;;;;;16.50;98.80;;;16.50;87.70;100195.28;5029007;28;20341;-93
2021/08/02 03:11:29;;;;;;;;;;;16.50;98.80;;;16.50;87.81;100199.97;5037250;28;20381;-91
2021/08/02 03:13:58;;;;;;;;;;;16.50;98.70;;;16.49;87.84;100209.28;5070020;28;20393;-90
2021/08/02 03:16:26;;;;;;;;;;;16.50;98.80;;;16.51;88.12;100207.97;5051335;28;19944;-91
2021/08/02 03:18:53;;;;;;;;;;;16.50;99.00;;;16.47;88.21;100205.91;5051933;28;19924;-91
2021/08/02 03:21:21;;;;;;;;;;;16.50;99.10;;;16.50;88.31;100210.94;5051968;28;19924;-91
2021/08/02 03:23:55;;;;;;;;;;;16.50;99.20;;;16.49;88.34;100212.03;5051712;28;19924;-92
2021/08/02 03:26:29;;;;;;;;;;;16.50;99.30;;;16.48;88.39;100208.44;5051635;28;19971;-91
2021/08/02 03:29:01;;;;;;;;;;;16.60;99.20;;;16.48;88.26;100204.84;5073903;28;19920;-91
2021/08/02 03:31:35;;;;;;;;;;;16.50;99.20;;;16.47;88.50;100200.41;5072387;28;19924;-91
2021/08/02 03:34:06;;;;;;;;;;;16.50;99.10;;;16.48;88.29;100208.44;5055914;28;19921;-92
2021/08/02 03:36:33;;;;;;;;;;;16.50;99.10;;;16.48;88.46;100208.44;5055418;28;19924;-90
2021/08/02 03:39:00;;;;;;;;;;;16.50;99.00;;;16.48;88.48;100213.09;5055669;28;19928;-91
2021/08/02 03:41:28;;;;;;;;;;;16.50;99.00;;;16.44;88.29;100209.13;5055671;28;19936;-91
2021/08/02 03:43:56;;;;;;;;;;;16.50;98.90;;;16.43;88.38;100205.56;5055649;28;19920;-90
2021/08/02 03:46:25;;;;;;;;;;;16.50;98.90;;;16.42;88.58;100210.19;5055204;28;20383;-91
2021/08/02 03:48:53;;;;;;;;;;;16.50;99.20;;;16.45;88.41;100208.91;5055811;28;19920;-91
2021/08/02 03:51:20;;;;;;;;;;;16.50;99.10;;;16.42;88.19;100215.69;5072068;28;19924;-92
2021/08/02 03:53:49;;;;;;;;;;;16.50;99.20;;;16.42;88.51;100218.44;5055656;28;20416;-92
2021/08/02 03:56:17;;;;;;;;;;;16.50;99.20;;;16.39;88.45;100216.16;5054955;28;19928;-92
2021/08/02 03:58:45;;;;;;;;;;;16.50;99.10;;;16.40;88.23;100217.81;5055476;28;19932;-91
2021/08/02 04:01:12;;;;;;;;;;;16.50;99.00;;;16.39;88.48;100224.41;5055541;28;19931;-92
2021/08/02 04:03:41;;;;;;;;;;;16.50;99.00;;;16.44;88.11;100220.13;5055139;28;19956;-91
2021/08/02 04:06:10;;;;;;;;;;;16.50;98.90;;;16.39;88.29;100212.56;5072443;28;20341;-91
2021/08/02 04:08:37;;;;;;;;;;;16.50;98.90;;;16.40;88.17;100220.56;5072985;28;19920;-91
2021/08/02 04:11:04;;;;;;;;;;;16.50;99.00;;;16.37;88.48;100234.78;5054800;28;20323;-92
2021/08/02 04:13:32;;;;;;;;;;;16.50;99.10;;;16.40;88.72;100231.56;5071510;28;19928;-92
2021/08/02 04:15:59;;;;;;;;;;;16.50;99.30;;;16.39;88.46;100224.41;5054052;28;19924;-92
2021/08/02 04:18:27;;;;;;;;;;;16.50;99.10;;;16.40;88.46;100234.31;5054812;28;20377;-90
2021/08/02 04:20:56;;;;;;;;;;;16.50;99.00;;;16.42;88.38;100242.31;5072734;28;19927;-91
2021/08/02 04:23:23;;;;;;;;;;;16.50;99.10;;;16.39;88.57;100238.13;5072768;28;20376;-92
2021/08/02 04:25:50;;;;;;;;;;;16.50;99.20;;;16.39;88.93;100232.63;5071846;28;19921;-91
2021/08/02 04:28:17;;;;;;;;;;;16.50;99.00;;;16.36;88.62;100238.59;5072298;28;19931;-91
2021/08/02 04:30:45;;;;;;;;;;;16.50;99.10;;;16.35;89.23;100247.88;5072463;28;19963;-91
2021/08/02 04:33:12;;;;;;;;;;;16.50;99.40;;;16.39;89.10;100249.13;5072564;28;19928;-91
2021/08/02 04:35:40;;;;;;;;;;;16.50;99.40;;;16.37;89.49;100247.66;5072563;28;19930;-92
2021/08/02 04:38:09;;;;;;;;;;;16.50;99.50;;;16.37;89.39;100243.03;5069416;28;20424;-92
2021/08/02 04:40:36;;;;;;;;;;;16.50;99.50;;;16.40;89.16;100256.28;5072108;28;19925;-91
2021/08/02 04:43:04;;;;;;;;;;;16.50;99.60;;;16.38;89.73;100252.09;5072229;28;20469;-91
2021/08/02 04:45:31;;;;;;;;;;;16.50;99.70;;;16.37;89.74;100254.00;5054296;28;19978;-90
2021/08/02 04:47:59;;;;;;;;;;;16.50;99.60;;;16.37;89.67;100251.25;5070414;28;19972;-91
2021/08/02 04:50:26;;;;;;;;;;;16.50;99.70;;;16.38;89.74;100249.34;5059332;28;19927;-91
2021/08/02 04:52:53;;;;;;;;;;;16.50;99.70;;;16.38;89.86;100260.31;5033944;28;19928;-92
2021/08/02 04:55:23;;;;;;;;;;;16.60;99.70;;;16.38;89.90;100255.66;5034063;28;19924;-90
2021/08/02 04:57:50;;;;;;;;;;;16.60;99.70;;;16.39;90.16;100256.50;5051356;28;19928;-91
2021/08/02 05:00:17;;;;;;;;;;;16.60;99.70;;;16.41;90.04;100257.97;5033952;28;19921;-91
2021/08/02 05:02:45;;;;;;;;;;;16.60;99.70;;;16.40;89.97;100258.19;5051988;28;19932;-92
2021/08/02 05:05:12;;;;;;;;;;;16.60;99.80;;;16.39;90.03;100265.59;5052332;28;20395;-92
2021/08/02 05:07:40;;;;;;;;;;;16.60;99.60;;;16.38;89.88;100263.91;5051150;28;19924;-91
2021/08/02 05:10:09;;;;;;;;;;;16.60;99.70;;;16.37;90.32;100256.75;5051893;28;19928;-91
2021/08/02 05:12:37;;;;;;;;;;;16.60;99.70;;;16.41;90.20;100260.72;5051797;28;20381;-91
2021/08/02 05:15:06;;;;;;;;;;;16.60;99.70;;;16.42;90.45;100261.53;5051652;28;19925;-91
2021/08/02 05:17:33;;;;;;;;;;;16.60;99.80;;;16.40;90.36;100261.78;5050783;28;19924;-92
2021/08/02 05:20:01;;;;;;;;;;;16.60;99.70;;;16.44;90.47;100266.81;5050032;28;19924;-92
2021/08/02 05:22:28;;;;;;;;;;;16.60;99.80;;;16.42;90.30;100267.03;5051294;28;19925;-91
2021/08/02 05:24:55;;;;;;;;;;;16.70;99.80;;;16.39;90.38;100256.50;5051409;28;19925;-91
2021/08/02 05:27:22;;;;;;;;;;;16.70;99.70;;;16.41;90.33;100262.59;5032909;28;19925;-90
2021/08/02 05:29:51;;;;;;;;;;;16.70;99.80;;;16.41;90.58;100268.09;5033495;28;19975;-91
2021/08/02 05:32:18;;;;;;;;;;;16.70;99.80;;;16.38;90.82;100263.91;5050149;28;19928;-91
2021/08/02 05:34:46;;;;;;;;;;;16.70;99.80;;;16.42;90.55;100261.53;5033820;28;19951;-90
2021/08/02 05:37:14;;;;;;;;;;;16.70;99.70;;;16.41;90.60;100263.47;5032530;28;20335;-92
2021/08/02 05:39:41;;;;;;;;;;;16.70;99.50;;;16.42;90.60;100270.63;5033316;28;19924;-92
2021/08/02 05:42:09;;;;;;;;;;;16.70;99.60;;;16.41;90.92;100268.09;5049829;28;19936;-91
2021/08/02 05:44:36;;;;;;;;;;;16.70;99.70;;;16.43;91.03;100274.22;5049990;28;19924;-91
2021/08/02 05:47:06;;;;;;;;;;;16.80;99.70;;;16.45;91.27;100271.22;5050479;28;19943;-92
2021/08/02 05:49:33;;;;;;;;;;;16.80;99.70;;;16.44;91.39;100266.81;5033095;28;19925;-91
2021/08/02 05:52:01;;;;;;;;;;;16.80;99.80;;;16.45;91.35;100263.84;5049604;28;19927;-91
2021/08/02 05:54:28;;;;;;;;;;;16.80;99.70;;;16.46;91.51;100270.16;5049965;28;19944;-92
2021/08/02 05:56:55;;;;;;;;;;;16.80;99.60;;;16.47;91.52;100272.69;5048893;28;19928;-91
2021/08/02 05:59:22;;;;;;;;;;;16.90;99.60;;;16.47;91.59;100266.34;5049400;28;19936;-91
2021/08/02 06:01:49;;;;;;;;;;;16.90;99.40;;;16.40;91.95;100264.50;5050862;28;19921;-91
2021/08/02 06:04:18;;;;;;;;;;;17.00;98.90;;;16.45;92.72;100280.31;5050620;28;19931;-91
2021/08/02 06:06:45;;;;;;;;;;;17.10;99.10;;;16.48;92.27;100279.84;5050133;28;19924;-91
2021/08/02 06:09:12;;;;;;;;;;;17.20;98.50;;;16.52;92.02;100286.56;5033007;28;19992;-92
2021/08/02 06:11:39;;;;;;;;;;;17.20;98.50;;;16.54;92.08;100286.34;5050198;28;19928;-91
2021/08/02 06:14:07;;;;;;;;;;;17.20;98.60;;;16.52;91.96;100286.56;5032684;28;20403;-92
2021/08/02 06:16:34;;;;;;;;;;;17.20;98.50;;;16.53;91.70;100295.66;5049885;28;19975;-93
2021/08/02 06:19:01;;;;;;;;;;;17.20;98.50;;;16.53;91.29;100287.41;5050616;28;19927;-93
2021/08/02 06:21:30;;;;;;;;;;;17.20;97.90;;;16.55;91.05;100288.03;5049146;28;19921;-92
2021/08/02 06:23:57;;;;;;;;;;;17.10;97.90;;;16.59;90.70;100300.22;5050230;28;19939;-91
2021/08/02 06:26:24;;;;;;;;;;;17.10;97.90;;;16.58;90.73;100296.66;5049670;28;20396;-89
2021/08/02 06:28:52;;;;;;;;;;;17.20;97.90;;;16.60;90.88;100293.66;5032617;28;19924;-90
2021/08/02 06:31:19;;;;;;;;;;;17.20;97.70;;;16.64;90.72;100297.63;5032285;28;19925;-91
2021/08/02 06:33:46;;;;;;;;;;;17.40;96.60;;;16.65;90.89;100291.06;5032223;28;19921;-91
2021/08/02 06:36:14;;;;;;;;;;;17.50;96.70;;;16.67;91.01;100294.41;5049597;28;19928;-91
2021/08/02 06:38:42;;;;;;;;;;;17.60;96.70;;;16.71;91.11;100306.63;5032399;28;19924;-91
2021/08/02 06:41:09;;;;;;;;;;;17.60;96.60;;;16.70;91.05;100310.44;5049834;28;19932;-91
2021/08/02 06:43:37;;;;;;;;;;;17.50;96.40;;;16.71;91.23;100306.63;5050113;28;20397;-92
2021/08/02 06:46:05;;;;;;;;;;;17.50;96.60;;;16.72;90.90;100313.81;5049620;28;19931;-92
2021/08/02 06:48:33;;;;;;;;;;;17.50;97.10;;;16.69;90.87;100313.44;5050014;28;19924;-91
2021/08/02 06:51:00;;;;;;;;;;;17.40;96.60;;;16.67;90.20;100308.16;5032042;28;19924;-93
2021/08/02 06:53:27;;;;;;;;;;;17.40;96.40;;;16.68;90.32;100317.22;5031854;28;19978;-91
2021/08/02 06:55:56;;;;;;;;;;;17.40;96.60;;;16.70;90.74;100318.69;5047584;28;19925;-91
2021/08/02 06:58:23;;;;;;;;;;;17.40;97.20;;;16.72;91.14;100324.81;5049554;28;19995;-92
2021/08/02 07:00:50;;;;;;;;;;;17.40;97.50;;;16.74;91.24;100325.41;5048336;28;19925;-92
2021/08/02 07:03:18;;;;;;;;;;;17.50;97.20;;;16.74;91.28;100327.31;5049539;28;19927;-92
2021/08/02 07:05:45;;;;;;;;;;;17.50;97.10;;;16.76;91.16;100330.69;5049483;28;19979;-91
2021/08/02 07:08:13;;;;;;;;;;;17.60;96.80;;;16.77;90.66;100326.84;5049324;28;19928;-91
2021/08/02 07:10:40;;;;;;;;;;;17.80;95.90;;;16.79;91.10;100328.31;5048328;28;20411;-90
2021/08/02 07:13:09;;;;;;;;;;;17.80;95.70;;;16.83;91.50;100331.47;5068908;28;20372;-92
2021/08/02 07:15:36;;;;;;;;;;;17.80;96.10;;;16.83;91.30;100339.72;5069805;28;20414;-91
2021/08/02 07:18:03;;;;;;;;;;;17.80;95.80;;;16.85;91.09;100331.22;5050900;28;19967;-91
2021/08/02 07:20:30;;;;;;;;;;;17.70;96.10;;;16.89;90.71;100329.72;5069892;28;19924;-91
2021/08/02 07:22:57;;;;;;;;;;;17.60;96.20;;;16.86;90.41;100327.41;5051892;28;19924;-92
2021/08/02 07:25:25;;;;;;;;;;;17.80;96.20;;;16.86;91.09;100331.00;5051591;28;19924;-92
2021/08/02 07:27:52;;;;;;;;;;;17.80;96.50;;;16.83;93.08;100330.63;5068150;28;20288;-91
2021/08/02 07:30:20;;;;;;;;;;;17.80;97.50;;;16.83;92.97;100327.88;5069515;28;19924;-91
2021/08/02 07:32:48;;;;;;;;;;;17.90;96.60;;;16.85;92.36;100325.72;5051743;28;19920;-91
2021/08/02 07:35:15;;;;;;;;;;;17.90;95.90;;;16.86;92.58;100333.75;5051799;28;19930;-92
2021/08/02 07:37:42;;;;;;;;;;;17.90;96.30;;;16.90;92.42;100339.63;5069123;28;19936;-92
2021/08/02 07:40:11;;;;;;;;;;;18.00;96.10;;;16.94;92.33;100338.91;5069553;28;20546;-92
2021/08/02 07:42:38;;;;;;;;;;;18.00;95.90;;;16.93;92.11;100341.91;5068306;28;19924;-91
2021/08/02 07:45:06;;;;;;;;;;;18.00;95.60;;;16.91;91.83;100342.16;5051570;28;20015;-92
2021/08/02 07:47:35;;;;;;;;;;;18.00;95.60;;;16.96;91.49;100344.19;5050898;28;19924;-93
2021/08/02 07:50:02;;;;;;;;;;;17.90;95.60;;;16.94;91.94;100344.41;5051693;28;20399;-91
2021/08/02 07:52:31;;;;;;;;;;;17.90;96.50;;;16.95;91.81;100339.78;5069391;28;19932;-91
2021/08/02 07:54:59;;;;;;;;;;;17.80;96.30;;;16.98;91.27;100344.78;5051649;28;19959;-92
2021/08/02 07:57:26;;;;;;;;;;;17.80;96.10;;;16.97;91.11;100337.63;5051013;28;19920;-92
2021/08/02 07:59:54;;;;;;;;;;;17.80;96.10;;;16.95;90.84;100339.78;5051474;28;19920;-91
2021/08/02 08:02:21;;;;;;;;;;;17.80;95.60;;;16.94;90.31;100335.34;5051162;28;19966;-90
2021/08/02 08:04:50;;;;;;;;;;;17.70;95.60;;;16.97;90.53;100343.13;5069181;28;20399;-91
2021/08/02 08:07:17;;;;;;;;;;;17.70;95.50;;;16.98;90.75;100342.91;5067207;28;19924;-92
2021/08/02 08:09:44;;;;;;;;;;;17.80;96.00;;;16.95;90.82;100339.78;5069279;28;19942;-90
2021/08/02 08:12:12;;;;;;;;;;;17.80;95.80;;;16.99;90.66;100347.31;5071528;22;19947;-86
2021/08/02 08:14:39;;;;;;;;;;;17.90;95.30;;;17.00;90.29;100343.50;5051115;28;19990;-86
2021/08/02 08:17:06;;;;;;;;;;;18.00;94.80;;;17.03;90.04;100350.44;5033306;28;19967;-86
2021/08/02 08:19:36;;;;;;;;;;;18.10;94.60;;;17.00;89.78;100353.66;5050666;28;20024;-86
2021/08/02 08:22:04;;;;;;;;;;;18.10;93.50;;;17.02;90.07;100346.03;5043500;28;19925;-87
2021/08/02 08:24:31;;;;;;;;;;;18.20;93.60;;;17.05;89.61;100347.47;5052168;28;20151;-85
2021/08/02 08:26:58;;;;;;;;;;;18.20;93.10;;;17.07;89.08;100350.81;5050161;28;19975;-86
2021/08/02 08:29:26;;;;;;;;;;;18.20;93.50;;;17.02;88.41;100351.53;5050659;28;19972;-86
2021/08/02 08:31:53;;;;;;;;;;;18.10;92.40;;;17.06;88.61;100351.88;5050632;28;19924;-87
2021/08/02 08:34:20;;;;;;;;;;;18.10;93.00;;;17.07;88.93;100348.91;5050605;28;19993;-85
2021/08/02 08:36:47;;;;;;;;;;;18.10;93.20;;;17.08;89.32;100356.09;5050997;28;19921;-86
2021/08/02 08:39:16;;;;;;;;;;;18.20;93.00;;;17.07;89.06;100350.81;5051852;28;19932;-87
2021/08/02 08:41:45;;;;;;;;;;;18.30;92.80;;;17.10;88.73;100359.47;5050224;28;19928;-86
2021/08/02 08:44:13;;;;;;;;;;;18.30;92.70;;;17.08;89.24;100356.09;5051580;28;20491;-86
2021/08/02 08:46:42;;;;;;;;;;;18.30;93.20;;;17.08;89.41;100360.78;5049187;28;19925;-86
2021/08/02 08:49:09;;;;;;;;;;;18.30;93.10;;;17.11;89.30;100357.53;5050274;28;19970;-86
2021/08/02 08:51:37;;;;;;;;;;;18.30;92.70;;;17.15;88.82;100356.00;5051408;28;19927;-86
2021/08/02 08:54:05;;;;;;;;;;;18.20;92.80;;;17.11;89.32;100350.13;5051476;28;19933;-86
2021/08/02 08:56:33;;;;;;;;;;;18.30;93.30;;;17.13;90.21;100353.47;5050657;28;19924;-86
2021/08/02 08:59:00;;;;;;;;;;;18.30;93.90;;;17.16;90.60;100347.53;5051490;28;19924;-86
2021/08/02 09:01:28;;;;;;;;;;;18.40;93.50;;;17.18;89.76;100350.03;5053621;28;19924;-86
2021/08/02 09:03:58;;;;;;;;;;;18.50;92.50;;;17.18;89.72;100356.38;5051559;28;19979;-87
2021/08/02 09:06:26;;;;;;;;;;;18.60;92.40;;;17.19;89.15;100354.47;5050472;28;19924;-86
2021/08/02 09:08:53;;;;;;;;;;;18.70;91.80;;;17.24;89.63;100353.78;5051700;28;19963;-86
2021/08/02 09:11:21;;;;;;;;;;;18.70;92.00;;;17.27;89.33;100358.78;5050826;28;19925;-86
2021/08/02 09:13:50;;;;;;;;;;;18.70;91.40;;;17.27;88.20;100364.28;5051272;28;19925;-86
2021/08/02 09:16:20;;;;;;;;;;;18.70;91.30;;;17.25;88.62;100366.44;5050301;28;20108;-87
2021/08/02 09:18:57;;;;;;;;;;;18.80;91.20;;;17.25;88.53;100366.44;5049509;28;19929;-86
2021/08/02 09:21:26;;;;;;;;;;;18.80;90.90;;;17.20;87.92;100362.47;5050762;28;20308;-86
2021/08/02 09:23:57;;;;;;;;;;;18.80;90.60;;;17.26;88.90;100359.88;5050792;28;19924;-86
2021/08/02 09:26:32;;;;;;;;;;;18.80;91.30;;;17.30;89.99;100358.34;5049910;28;20343;-86
2021/08/02 09:29:04;;;;;;;;;;;18.90;91.50;;;17.35;89.50;100361.25;5050964;28;19978;-86
2021/08/02 09:31:33;;;;;;;;;;;19.00;90.90;;;17.37;89.50;100367.34;5050758;28;20397;-86
2021/08/02 09:34:05;;;;;;;;;;;19.10;90.60;;;17.39;88.90;100374.28;5049457;28;19931;-86
2021/08/02 09:36:40;;;;;;;;;;;19.30;89.20;;;17.45;88.76;100361.50;5050179;28;20416;-86
2021/08/02 09:39:11;;;;;;;;;;;19.50;88.60;;;17.49;87.66;100365.47;5050574;28;19966;-86
2021/08/02 09:41:38;;;;;;;;;;;19.60;87.20;;;17.55;87.96;100360.94;5049190;28;19989;-86
2021/08/02 09:44:18;;;;;;;;;;;19.70;87.40;;;17.53;86.19;100352.91;5050482;28;20282;-86
2021/08/02 09:46:54;;;;;;;;;;;19.70;85.70;;;17.62;87.28;100355.34;5049470;28;20358;-86
2021/08/02 09:49:21;;;;;;;;;;;19.90;86.30;;;17.67;86.47;100355.47;5051429;28;19928;-87
2021/08/02 09:52:07;;;;;;;;;;;20.10;85.70;;;17.74;85.87;100354.31;5050065;28;19929;-89
2021/08/02 09:54:35;;;;;;;;;;;20.30;84.80;;;17.75;85.37;100346.88;5048982;28;20016;-88
2021/08/02 09:57:05;;;;;;;;;;;20.40;83.80;;;17.77;83.85;100348.31;5049690;28;19955;-89
2021/08/02 09:59:35;;;;;;;;;;;20.40;81.50;;;17.78;83.04;100352.75;5048767;28;19935;-89
2021/08/02 10:02:04;;;;;;;;;;;20.30;82.30;;;17.84;85.99;100350.13;5048843;28;19936;-89
2021/08/02 10:04:33;;;;;;;;;;;20.30;84.00;;;17.93;86.55;100352.34;5050235;28;20347;-89
2021/08/02 10:07:01;;;;;;;;;;;20.50;84.20;;;17.98;87.19;100355.19;5065728;28;19955;-92
2021/08/02 10:09:28;;;;;;;;;;;20.50;83.50;;;18.00;83.81;100359.66;5050775;28;19925;-87
2021/08/02 10:11:56;;;;;;;;;;;20.50;82.10;;;18.00;83.01;100363.22;5039844;28;20011;-87
2021/08/02 10:14:28;;;;;;;;;;;20.50;82.60;;;18.03;84.25;100361.91;5049907;28;19925;-87
2021/08/02 10:16:58;;;;;;;;;;;20.50;83.20;;;18.03;85.88;100357.25;5047568;28;19966;-88
2021/08/02 10:19:36;;;;;;;;;;;20.30;84.80;;;18.06;85.97;100355.94;5048501;28;19932;-87
2021/08/02 10:22:04;;;;;;;;;;;20.20;85.50;;;18.05;83.57;100348.75;5049683;28;19925;-87
2021/08/02 10:24:31;;;;;;;;;;;20.20;83.30;;;18.05;83.81;100348.75;5049805;28;19948;-89
2021/08/02 10:26:59;;;;;;;;;;;20.20;84.00;;;18.06;84.46;100350.44;5047271;28;19920;-87
2021/08/02 10:29:37;;;;;;;;;;;20.20;83.70;;;18.05;81.24;100354.25;5049843;28;19990;-87
2021/08/02 10:32:07;;;;;;;;;;;20.20;81.80;;;18.07;81.53;100352.13;5049744;28;19985;-88
2021/08/02 10:34:34;;;;;;;;;;;20.30;82.30;;;18.05;78.92;100351.50;5048087;28;19925;-87
2021/08/02 10:37:02;;;;;;;;;;;20.40;81.00;;;18.11;83.55;100347.81;5048058;28;19936;-88
2021/08/02 10:39:30;;;;;;;;;;;20.50;82.00;;;18.11;79.93;100347.81;5049513;28;20670;-87
2021/08/02 10:42:08;;;;;;;;;;;20.50;79.10;;;18.18;81.74;100343.00;5047963;28;19925;-87
2021/08/02 10:44:36;;;;;;;;;;;20.60;80.70;;;18.29;81.16;100344.09;5049510;28;20436;-87
2021/08/02 10:47:09;;;;;;;;;;;20.80;80.20;;;18.34;81.45;100345.03;5048839;28;19931;-87
2021/08/02 10:49:37;;;;;;;;;;;20.90;79.70;;;18.32;77.05;100351.88;5048074;28;20365;-87
2021/08/02 10:52:05;;;;;;;;;;;20.90;77.60;;;18.35;77.96;100343.13;5049031;28;19925;-87
2021/08/02 10:54:39;;;;;;;;;;;21.00;77.20;;;18.38;80.44;100347.31;5049368;28;20309;-87
2021/08/02 10:57:13;;;;;;;;;;;21.00;78.50;;;18.40;80.49;100346.00;5048460;28;20384;-87
2021/08/02 10:59:40;;;;;;;;;;;21.00;77.60;;;18.44;77.29;100340.84;5047995;28;19978;-88
2021/08/02 11:02:12;;;;;;;;;;;21.00;77.80;;;18.40;76.30;100343.25;5066821;28;19928;-88
2021/08/02 11:04:40;;;;;;;;;;;21.00;76.50;;;18.44;80.59;100347.19;5051494;28;19932;-87
2021/08/02 11:07:08;;;;;;;;;;;21.00;79.40;;;18.45;80.71;100337.84;5050414;28;19956;-87
2021/08/02 11:09:37;;;;;;;;;;;21.00;78.50;;;18.48;79.11;100342.88;5069385;28;19931;-88
2021/08/02 11:12:08;;;;;;;;;;;21.00;78.60;;;18.53;81.90;100336.66;5050701;28;19928;-88
2021/08/02 11:14:48;;;;;;;;;;;21.10;80.10;;;18.51;79.73;100336.06;5069106;28;20377;-87
2021/08/02 11:17:17;;;;;;;;;;;21.10;78.90;;;18.52;81.04;100332.19;5068339;28;19925;-87
2021/08/02 11:19:45;;;;;;;;;;;21.00;79.60;;;18.52;80.55;100323.94;5050827;28;19930;-87